This is the latest recevied weather packets stored in our database for station/object DL5TW-13. If no packets are shown the sender has not sent any weather packets the latest 10 day(s).
| Time | Temp. | Humidity | Pressure | Rain* | Wind** | Luminosity | Snow |
|---|---|---|---|---|---|---|---|
| 1778087797 | 14.44° C | 62% | 1000.5 hPa | 0 mm | - | - | - |
| 1778087497 | 15.56° C | 59% | 1000.4 hPa | 0 mm | - | - | - |
| 1778087197 | 15.56° C | 59% | 1000.3 hPa | 0 mm | - | - | - |
| 1778086897 | 16.11° C | 59% | 1000.4 hPa | 0 mm | - | - | - |
| 1778086596 | 16.67° C | 61% | 1000.6 hPa | 0 mm | - | - | - |
| 1778086296 | 16.67° C | 60% | 1000.4 hPa | 0 mm | - | - | - |
| 1778085996 | 17.22° C | 59% | 1000.1 hPa | 0 mm | - | - | - |
| 1778085695 | 17.22° C | 58% | 1000.3 hPa | 0 mm | - | - | - |
| 1778085395 | 17.22° C | 58% | 1000.2 hPa | 0 mm | - | - | - |
| 1778085095 | 17.78° C | 57% | 1000.1 hPa | 0 mm | - | - | - |
| 1778084795 | 17.78° C | 57% | 1000.2 hPa | 0 mm | - | - | - |
| 1778084194 | 18.33° C | 55% | 1000.2 hPa | 0 mm | - | - | - |
| 1778083894 | 18.33° C | 55% | 1000.2 hPa | 0 mm | - | - | - |
| 1778083593 | 18.89° C | 55% | 1000.2 hPa | 0 mm | - | - | - |
| 1778083293 | 18.89° C | 55% | 1000.1 hPa | 0 mm | - | - | - |
| 1778082993 | 18.89° C | 54% | 1000 hPa | 0 mm | - | - | - |
| 1778082693 | 19.44° C | 53% | 1000 hPa | 0 mm | - | - | - |
| 1778082392 | 19.44° C | 53% | 1000 hPa | 0 mm | - | - | - |
| 1778082092 | 20° C | 53% | 1000.1 hPa | 0 mm | - | - | - |
| 1778081792 | 20° C | 53% | 1000 hPa | 0 mm | - | - | - |
| 1778081491 | 20° C | 53% | 999.9 hPa | 0 mm | - | - | - |
| 1778081191 | 20° C | 54% | 1000 hPa | 0 mm | - | - | - |
| 1778080891 | 19.44° C | 54% | 999.9 hPa | 0 mm | - | - | - |
| 1778080591 | 19.44° C | 54% | 1000.1 hPa | 0 mm | - | - | - |
| 1778080290 | 19.44° C | 52% | 999.7 hPa | 0 mm | - | - | - |
* Rain latest hour (hover to see other rain measurements)
** Current wind speed in m/s (hover to see current wind gust speed)